• Join FlightAware (Why Join?)
  • Login
  • US Flag 
12:45PM EDT


 

Airport Tracker/Info


-or-


 

Live Flight TrackerFlight Track Log ✈ N555LG ✈ 28-Apr-2013 ✈ KHEF - KIXD

Flight Track Log - Related Links

Times and Time Zones

All times are in EDT time to prevent confusion due to time zone crossing. See the N555LG flight status page for this flight to view local times or setup timezone preferences in your user account.

Time Position Orientation Groundspeed Altitude Reporting Facility
EDT Latitude Longitude Course Direction KTS MPH feet Rate Location/Type
06:21PM 38.6833 -77.5167 283° West 194 223 2,000  Level Potomac TRACON
06:22PM 38.6833 -77.6000 270° West 224 258 4,500 2,460 Climbing Potomac TRACON
06:23PM 38.7167 -77.7000 293° West 258 297 7,200 2,940 Climbing Potomac TRACON
06:24PM 38.7333 -77.7833 284° West 261 300 10,400 2,760 Climbing Potomac TRACON
06:25PM 38.7606 -77.8733 291° West 280 322 12,800 2,400 Climbing Washington Center
06:26PM 38.7856 -77.9700 288° West 292 336 15,400 1,980 Climbing Washington Center
06:27PM 38.8492 -78.1956 283° West  Level FlightAware Approximate
06:27PM 38.8172 -78.0642 293° West 322 371 16,900  Level Washington Center
06:28PM 38.8439 -78.1744 287° West 330 380 17,700 780 Climbing Washington Center
06:29PM 38.8519 -78.2919 275° West 330 380 18,500 1,200 Climbing Washington Center
06:30PM 38.8531 -78.4144 271° West 333 383 20,200 1,440 Climbing Washington Center
06:31PM 38.8503 -78.5344 268° West 338 389 21,400 1,260 Climbing Washington Center
06:32PM 38.8494 -78.6569 270° West 338 389 22,800 1,380 Climbing Washington Center
06:33PM 38.8483 -78.7742 269° West 343 395 24,200 1,380 Climbing Washington Center
06:34PM 38.8453 -78.8914 268° West 343 395 25,600 1,380 Climbing Washington Center
06:35PM 38.8442 -79.0033 269° West 331 381 27,100 1,500 Climbing Washington Center
06:36PM 38.8431 -79.1153 269° West 325 374 28,700 1,560 Climbing Washington Center
06:37PM 38.8317 -79.2186 262° West 315 362 30,300 1,620 Climbing Washington Center
06:38PM 38.7997 -79.3103 246° West 298 343 32,000 1,320 Climbing Washington Center
06:39PM 38.7650 -79.4178 248° West 292 336 33,000 480 Climbing Washington Center
06:40PM 38.7344 -79.5200 249° West 298 343 33,000  Level Washington Center
06:41PM 38.7247 -79.6258 263° West 316 364 33,000  Level Washington Center
06:42PM 38.7147 -79.7397 264° West 327 376 33,000  Level Washington Center
06:43PM 38.7044 -79.8561 264° West 333 383 33,000  Level Washington Center
06:44PM 38.6958 -79.9756 265° West 333 383 33,000  Level Washington Center
06:45PM 38.6892 -80.1028 266° West 333 383 33,000  Level Washington Center
06:46PM 38.6839 -80.1614 263° West 331 381 33,000  Level Indianapolis Center
06:47PM 38.6756 -80.2783 265° West 329 379 33,000  Level Indianapolis Center
06:48PM 38.6689 -80.4181 267° West 329 379 33,000  Level Indianapolis Center
06:49PM 38.6633 -80.5325 266° West 323 372 33,000  Level Indianapolis Center
06:50PM 38.6586 -80.6456 267° West 320 368 33,000  Level Indianapolis Center
06:51PM 38.6536 -80.7581 267° West 318 366 33,000 240 Level Indianapolis Center
06:52PM 38.6508 -80.8711 268° West 319 367 33,600 720 Climbing Indianapolis Center
06:53PM 38.6503 -80.9792 270° West 308 354 34,500 660 Climbing Indianapolis Center
06:54PM 38.6508 -81.0850 270° West 299 344 35,000 480 Climbing Indianapolis Center
06:55PM 38.6700 -81.2194 280° West 321 369 35,600 720 Climbing Indianapolis Center
06:56PM 38.6786 -81.3250 276° West 301 346 36,500 840 Climbing Indianapolis Center
06:57PM 38.6925 -81.4300 280° West 303 349 37,400 900 Climbing Indianapolis Center
06:58PM 38.6983 -81.5369 274° West 302 348 38,400 960 Climbing Indianapolis Center
06:59PM 38.7044 -81.6561 274° West 291 335 39,400 720 Climbing Indianapolis Center
07:00PM 38.7097 -81.7561 274° West 295 339 40,000 240 Climbing Indianapolis Center
07:01PM 38.7161 -81.8644 274° West 304 350 40,000  Level Indianapolis Center
07:03PM 38.7211 -81.9822 273° West 328 377 40,000  Level Indianapolis Center
07:04PM 38.7283 -82.1033 274° West 341 392 40,000  Level Indianapolis Center
07:05PM 38.7336 -82.2556 273° West 351 404 40,000  Level Indianapolis Center
07:06PM 38.7408 -82.3803 274° West 357 411 40,000  Level Indianapolis Center
07:07PM 38.7447 -82.5069 272° West 357 411 40,000  Level Indianapolis Center
07:08PM 38.7511 -82.6331 274° West 355 409 40,000  Level Indianapolis Center
07:09PM 38.7275 -82.7539 256° West 352 405 40,000  Level Indianapolis Center
07:10PM 38.7011 -82.8744 254° West 353 406 40,000  Level Indianapolis Center
07:11PM 38.6736 -82.9939 254° West 351 404 40,000  Level Indianapolis Center
07:12PM 38.6414 -83.1342 254° West 349 402 40,000  Level Indianapolis Center
07:13PM 38.6156 -83.2561 255° West 353 406 40,000  Level Indianapolis Center
07:14PM 38.5908 -83.3756 255° West 351 404 40,000  Level Indianapolis Center
07:15PM 38.5656 -83.4961 255° West 352 405 40,000  Level Indianapolis Center
07:16PM 38.5372 -83.6375 256° West 352 405 40,000  Level Indianapolis Center
07:17PM 38.5147 -83.7606 257° West 357 411 40,000  Level Indianapolis Center
07:18PM 38.5203 -83.8878 273° West 359 413 40,000  Level Indianapolis Center
07:19PM 38.5286 -84.0158 275° West 361 415 40,000  Level Indianapolis Center
07:20PM 38.5361 -84.1442 274° West 361 415 40,000  Level Indianapolis Center
07:21PM 38.5431 -84.2731 274° West 363 418 40,000  Level Indianapolis Center
07:22PM 38.5508 -84.4233 274° West 364 419 40,000  Level Indianapolis Center
07:23PM 38.5578 -84.5494 274° West 359 413 40,000  Level Indianapolis Center
07:24PM 38.5672 -84.6761 275° West 360 414 40,000  Level Indianapolis Center
07:25PM 38.5719 -84.8036 273° West 359 413 40,000  Level Indianapolis Center
07:26PM 38.5794 -84.9308 274° West 357 411 40,000  Level Indianapolis Center
07:27PM 38.5858 -85.0808 273° West 362 417 40,000  Level Indianapolis Center
07:28PM 38.5933 -85.2078 274° West 360 414 40,000  Level Indianapolis Center
07:29PM 38.5978 -85.3344 273° West 361 415 40,000  Level Indianapolis Center
07:30PM 38.6056 -85.4625 274° West 363 418 40,000  Level Indianapolis Center
07:31PM 38.6117 -85.5928 273° West 367 422 40,000  Level Indianapolis Center
07:32PM 38.6164 -85.7214 273° West 364 419 40,000  Level Indianapolis Center
07:33PM 38.6231 -85.8522 274° West 368 423 40,000  Level Indianapolis Center
07:35PM 38.6267 -85.9803 272° West 363 418 40,000  Level Indianapolis Center
07:36PM 38.6347 -86.1367 274° West 363 418 40,000  Level Indianapolis Center
07:37PM 38.6389 -86.2661 272° West 363 418 40,000  Level Indianapolis Center
07:38PM 38.6444 -86.3978 273° West 369 425 40,000  Level Indianapolis Center
07:39PM 38.6497 -86.5272 273° West 366 421 40,000  Level Indianapolis Center
07:40PM 38.6528 -86.6575 272° West 366 421 40,000  Level Indianapolis Center
07:41PM 38.6586 -86.7867 273° West 365 420 40,000  Level Indianapolis Center
07:42PM 38.6636 -86.9419 272° West 366 421 40,000  Level Indianapolis Center
07:43PM 38.6678 -87.0714 272° West 367 422 40,000  Level Indianapolis Center
07:44PM 38.6722 -87.2003 273° West 367 422 40,000  Level Indianapolis Center
07:45PM 38.6756 -87.3300 272° West 366 421 40,000  Level Indianapolis Center
07:46PM 38.6808 -87.4606 273° West 368 423 40,000  Level Indianapolis Center
07:47PM 38.6828 -87.5919 271° West 369 425 40,000  Level Indianapolis Center
07:48PM 38.6881 -87.7228 273° West 370 426 40,000  Level Indianapolis Center
07:49PM 38.6897 -87.8836 271° West 370 426 40,000  Level Kansas City Center
07:50PM 38.6931 -88.0144 272° West 368 423 40,000  Level Kansas City Center
07:51PM 38.6975 -88.1717 272° West 368 423 40,000  Level Kansas City Center
07:52PM 38.7003 -88.3017 272° West 366 421 40,000  Level Kansas City Center
07:53PM 38.7042 -88.4328 272° West 367 422 40,000  Level Kansas City Center
07:54PM 38.7053 -88.5647 271° West 368 423 40,000  Level Kansas City Center
07:55PM 38.6867 -88.6939 260° West 370 426 40,000  Level Kansas City Center
07:56PM 38.6711 -88.8233 261° West 371 427 40,000  Level Kansas City Center
07:57PM 38.6536 -88.9533 260° West 371 427 40,000  Level Kansas City Center
07:58PM 38.6381 -89.1047 263° West 368 423 40,000  Level Kansas City Center
07:59PM 38.6497 -89.2450 276° West 367 422 40,000  Level Kansas City Center
08:00PM 38.6567 -89.3758 274° West 371 427 40,000  Level Kansas City Center
08:01PM 38.6653 -89.5181 274° West 374 430 40,000  Level Kansas City Center
08:03PM 38.6722 -89.6522 274° West 379 436 40,000  Level Kansas City Center
08:04PM 38.6775 -89.7708 273° West 380 437 40,000  Level Kansas City Center
08:05PM 38.6864 -89.9350 274° West 384 442 40,000  Level Kansas City Center
08:06PM 38.6947 -90.0614 275° West 384 442 40,000  Level Kansas City Center
08:07PM 38.6997 -90.1983 273° West 385 443 40,000  Level Kansas City Center
08:08PM 38.7064 -90.3367 274° West 387 445 40,000  Level Kansas City Center
08:09PM 38.7139 -90.5050 273° West 391 450 40,000  Level Kansas City Center
08:10PM 38.7200 -90.6461 273° West 395 455 40,000  Level Kansas City Center
08:11PM 38.7258 -90.7794 273° West 392 451 40,000  Level Kansas City Center
08:12PM 38.7328 -90.9183 274° West 393 452 40,000  Level Kansas City Center
08:13PM 38.7394 -91.0589 274° West 395 455 40,000  Level Kansas City Center
08:14PM 38.7453 -91.2256 273° West 394 453 40,000  Level Kansas City Center
08:15PM 38.7514 -91.3653 273° West 393 452 40,000 -60 Level Kansas City Center
08:16PM 38.7561 -91.5025 273° West 390 449 39,900 -540 Descending Kansas City Center
08:17PM 38.7614 -91.6367 273° West 382 440 38,900 -1,260 Descending Kansas City Center
08:18PM 38.7658 -91.7781 272° West 377 434 37,300 -1,260 Descending Kansas City Center
08:19PM 38.7714 -91.9167 273° West 386 444 36,400 -660 Descending Kansas City Center
08:20PM 38.7756 -92.0572 272° West 394 453 36,000 -300 Descending Kansas City Center
08:21PM 38.7836 -92.2242 274° West 393 452 35,800 -840 Descending Kansas City Center
08:22PM 38.7922 -92.3619 275° West 391 450 34,300 -960 Descending Kansas City Center
08:23PM 38.8011 -92.4961 275° West 383 441 33,900 -1,020 Descending Kansas City Center
08:24PM 38.8086 -92.6300 274° West 378 435 32,200 -1,740 Descending Kansas City Center
08:25PM 38.8117 -92.7689 272° West 385 443 30,400 -1,800 Descending Kansas City Center
08:26PM 38.8139 -92.9114 271° West 395 455 28,600 -2,040 Descending Kansas City Center
08:27PM 38.8158 -93.0778 271° West 392 451 26,300 -2,100 Descending Kansas City Center
08:28PM 38.8192 -93.2142 272° West 387 445 24,300 -2,040 Descending Kansas City Center
08:29PM 38.8200 -93.3497 270° West 382 440 22,100 -2,160 Descending Kansas City Center
08:30PM 38.8206 -93.4803 270° West 374 430 19,900 -2,160 Descending Kansas City Center
08:31PM 38.8217 -93.6053 271° West 360 414 17,700 -2,160 Descending Kansas City Center
08:32PM 38.8242 -93.7286 272° West 349 402 15,500 -2,220 Descending Kansas City Center
08:34PM 38.8244 -93.8503 270° West 328 377 13,200 -2,280 Descending Kansas City Center
08:35PM 38.8308 -93.9778 274° West 322 371 10,900 -1,800 Descending Kansas City Center
08:36PM 38.8425 -94.0717 279° West 279 321 9,500 -1,560 Descending Kansas City Center
08:37PM 38.8508 -94.1808 276° West 276 318 7,700 -1,560 Descending Kansas City Center
08:38PM 38.8614 -94.2725 278° West 272 313 6,300 -1,560 Descending Kansas City Center
08:39PM 38.8708 -94.3764 277° West 263 303 4,500 -1,140 Descending Kansas City Center
08:40PM 38.8797 -94.4633 278° West 257 296 4,000 -300 Descending Kansas City Center
08:41PM 38.8883 -94.5456 278° West 246 283 4,000  Level Kansas City Center
08:42PM 38.8972 -94.6439 277° West 248 285 4,000  Level Kansas City Center
08:43PM 38.9056 -94.7303 277° West 255 293 4,000 -300 Level Kansas City Center
08:44PM 38.9136 -94.8236 276° West 234 269 3,500 -660 Descending Kansas City Center
08:45PM 38.8978 -94.8839 251° West 193 222 2,700 -960 Descending Kansas City Center
08:46PM 38.8622 -94.8919 190° South 105 121 1,600 -780 Descending Kansas City Center
08:47PM 38.8353 -94.8911 179° South 92 106 1,200 -420 Descending Kansas City Center